Time;durP1;ratioP1;P1;durP2;ratioP2;P2;SDS_P1;SDS_P2;PMS_P1;PMS_P2;Temp;Humidity;BMP_temperature;BMP_pressure;BME280_temperature;BME280_humidity;BME280_pressure;Samples;Min_cycle;Max_cycle;Signal;HPM_P1;HPM_P2
2023/04/12 00:00:53;;;;;;;17.85;9.55;;;;;;;11.38;100.00;98996.34;1713162;83;21207;-82
2023/04/12 00:04:01;;;;;;;17.75;8.58;;;;;;;11.39;100.00;98993.11;1713060;83;22505;-82
2023/04/12 00:07:10;;;;;;;20.05;10.58;;;;;;;11.38;100.00;98988.13;1713194;83;21181;-81
2023/04/12 00:10:17;;;;;;;20.20;9.58;;;;;;;11.36;100.00;98984.78;1714349;83;21184;-82
2023/04/12 00:13:22;;;;;;;19.50;8.85;;;;;;;11.40;100.00;98990.67;1713314;83;21251;-82
2023/04/12 00:16:29;;;;;;;23.40;9.83;;;;;;;11.41;100.00;98989.08;1712653;83;21236;-82
2023/04/12 00:19:35;;;;;;;18.32;9.45;;;;;;;11.38;100.00;98980.45;1714531;83;21188;-82
2023/04/12 00:22:41;;;;;;;19.37;9.58;;;;;;;11.37;100.00;98985.08;1712834;83;21844;-82
2023/04/12 00:25:48;;;;;;;19.35;9.80;;;;;;;11.37;100.00;98980.14;1714487;83;21262;-82
2023/04/12 00:28:47;;;;;;;20.85;9.28;;;;;;;11.48;100.00;98978.97;1713161;83;21224;-83
2023/04/12 00:31:40;;;;;;;21.33;9.98;;;;;;;11.39;100.00;98983.52;1713345;83;21192;-83
2023/04/12 00:34:28;;;;;;;25.37;10.05;;;;;;;11.32;100.00;98976.67;1714482;83;21196;-83
2023/04/12 00:37:29;;;;;;;22.82;9.83;;;;;;;11.28;100.00;98974.05;1714492;83;21201;-82
2023/04/12 00:40:34;;;;;;;16.67;9.55;;;;;;;11.42;100.00;98974.33;1714482;83;21177;-82
2023/04/12 00:43:39;;;;;;;17.45;9.43;;;;;;;11.30;100.00;98974.69;1713389;83;21231;-82
2023/04/12 00:46:45;;;;;;;22.05;9.00;;;;;;;11.24;100.00;98972.78;1714398;83;21193;-82
2023/04/12 00:49:51;;;;;;;18.52;9.80;;;;;;;11.23;100.00;98962.37;1712847;83;21224;-82
2023/04/12 00:52:57;;;;;;;19.02;8.93;;;;;;;11.26;100.00;98966.06;1713773;83;21204;-83
2023/04/12 00:56:00;;;;;;;18.23;9.43;;;;;;;11.21;100.00;98952.70;1713886;83;21212;-82
2023/04/12 00:59:05;;;;;;;24.00;11.03;;;;;;;11.29;100.00;98956.56;1713159;83;21223;-82
2023/04/12 01:02:12;;;;;;;19.67;9.55;;;;;;;11.27;100.00;98953.21;1713899;83;21181;-82
2023/04/12 01:05:23;;;;;;;19.20;9.30;;;;;;;11.21;100.00;98949.97;1713866;83;21176;-82
2023/04/12 01:08:37;;;;;;;21.00;9.15;;;;;;;11.14;100.00;98940.38;1714041;83;21208;-82
2023/04/12 01:11:58;;;;;;;22.02;10.20;;;;;;;11.19;100.00;98941.11;1713545;83;21224;-82
2023/04/12 01:15:23;;;;;;;16.85;9.63;;;;;;;11.16;100.00;98945.66;1713079;83;21205;-82
2023/04/12 01:18:29;;;;;;;19.62;9.88;;;;;;;11.10;100.00;98933.65;1712870;83;21765;-82
2023/04/12 01:21:44;;;;;;;16.87;8.70;;;;;;;11.05;100.00;98932.61;1714366;83;21204;-82
2023/04/12 01:25:13;;;;;;;18.27;9.30;;;;;;;11.12;100.00;98930.72;1713334;83;21283;-82
2023/04/12 01:28:21;;;;;;;20.82;9.93;;;;;;;11.16;100.00;98918.30;1714564;83;21247;-82
2023/04/12 01:31:28;;;;;;;20.55;10.05;;;;;;;11.09;100.00;98924.30;1714259;83;21244;-81
2023/04/12 01:34:36;;;;;;;17.62;9.85;;;;;;;11.14;100.00;98913.55;1713076;83;21195;-82
2023/04/12 01:37:42;;;;;;;19.65;9.58;;;;;;;11.14;100.00;98908.08;1714428;83;21204;-81
2023/04/12 01:40:48;;;;;;;23.70;10.72;;;;;;;11.13;100.00;98907.23;1714343;83;21244;-82
2023/04/12 01:43:54;;;;;;;20.72;9.63;;;;;;;11.24;100.00;98911.20;1713855;83;21228;-82
2023/04/12 01:47:00;;;;;;;18.60;9.90;;;;;;;11.05;100.00;98906.09;1714471;83;21203;-81
2023/04/12 01:50:24;;;;;;;16.82;10.00;;;;;;;10.98;100.00;98904.74;1714398;83;22471;-81
2023/04/12 01:53:33;;;;;;;18.42;9.43;;;;;;;10.98;100.00;98897.06;1714351;83;21740;-81
2023/04/12 01:56:38;;;;;;;12.63;8.95;;;;;;;10.97;100.00;98893.49;1714438;83;21731;-82
2023/04/12 01:59:48;;;;;;;21.50;10.08;;;;;;;10.96;100.00;98882.74;1713614;83;22575;-82
2023/04/12 02:02:56;;;;;;;19.55;9.20;;;;;;;11.09;100.00;98876.41;1712857;83;21243;-82
2023/04/12 02:06:03;;;;;;;17.65;8.45;;;;;;;11.10;100.00;98878.92;1714415;83;21240;-82
2023/04/12 02:09:10;;;;;;;23.45;9.05;;;;;;;10.96;100.00;98878.14;1712880;83;21196;-82
2023/04/12 02:12:16;;;;;;;17.45;7.95;;;;;;;10.81;100.00;98879.41;1713438;83;21237;-82
2023/04/12 02:15:22;;;;;;;18.00;8.25;;;;;;;10.78;100.00;98876.59;1713305;83;21228;-82
2023/04/12 02:18:29;;;;;;;18.67;8.60;;;;;;;10.79;100.00;98878.27;1712496;83;21248;-81
2023/04/12 02:21:47;;;;;;;13.70;7.28;;;;;;;10.79;100.00;98863.22;1713220;83;21208;-82
2023/04/12 02:24:53;;;;;;;15.23;8.25;;;;;;;10.81;100.00;98865.20;1713849;83;21768;-82
2023/04/12 02:28:00;;;;;;;16.30;7.90;;;;;;;10.95;100.00;98856.45;1714352;83;22522;-82
2023/04/12 02:31:07;;;;;;;12.03;7.00;;;;;;;10.94;100.00;98861.08;1712981;83;21232;-82
2023/04/12 02:34:16;;;;;;;14.87;7.28;;;;;;;10.95;100.00;98852.34;1714097;83;21200;-81
2023/04/12 02:37:26;;;;;;;12.58;7.28;;;;;;;10.95;100.00;98853.18;1713174;83;21211;-82
2023/04/12 02:40:31;;;;;;;16.85;7.05;;;;;;;10.93;100.00;98847.09;1714347;83;22492;-82
2023/04/12 02:43:40;;;;;;;16.12;6.62;;;;;;;10.91;100.00;98851.08;1714418;83;21192;-82
2023/04/12 02:46:45;;;;;;;15.53;6.75;;;;;;;10.83;100.00;98854.91;1713171;83;21208;-82
2023/04/12 02:49:44;;;;;;;13.38;6.87;;;;;;;10.87;100.00;98857.53;1714345;83;21204;-82
2023/04/12 02:52:51;;;;;;;14.15;6.67;;;;;;;10.91;100.00;98854.66;1690216;83;21247;-81
2023/04/12 02:56:00;;;;;;;14.00;6.20;;;;;;;10.98;100.00;98856.03;1713409;83;21243;-82
2023/04/12 02:59:06;;;;;;;16.90;6.90;;;;;;;10.84;100.00;98852.48;1691493;83;21198;-82
2023/04/12 03:02:14;;;;;;;11.85;6.47;;;;;;;10.85;100.00;98855.52;1712487;83;21224;-82
2023/04/12 03:05:22;;;;;;;13.10;6.35;;;;;;;10.83;100.00;98853.54;1713102;83;21290;-82
2023/04/12 03:08:31;;;;;;;11.50;5.62;;;;;;;10.84;100.00;98857.11;1714463;83;21835;-82
2023/04/12 03:11:37;;;;;;;18.37;5.95;;;;;;;10.75;100.00;98854.59;1713922;83;21866;-82
2023/04/12 03:14:43;;;;;;;12.95;5.83;;;;;;;10.92;100.00;98856.36;1713227;83;21224;-81
2023/04/12 03:17:50;;;;;;;12.18;6.25;;;;;;;10.95;100.00;98853.18;1713110;83;21826;-81
2023/04/12 03:21:01;;;;;;;15.78;6.92;;;;;;;10.90;100.00;98850.25;1695489;84;21797;-82
2023/04/12 03:24:08;;;;;;;13.30;6.67;;;;;;;10.92;100.00;98854.16;1696166;84;21746;-81
2023/04/12 03:27:13;;;;;;;11.00;5.92;;;;;;;10.98;100.00;98855.50;1695963;84;21231;-82
2023/04/12 03:30:20;;;;;;;18.55;6.28;;;;;;;11.03;100.00;98852.12;1694802;84;21258;-82
2023/04/12 03:33:25;;;;;;;16.40;5.80;;;;;;;10.99;100.00;98853.06;1696028;84;21227;-83
2023/04/12 03:36:32;;;;;;;14.40;6.00;;;;;;;10.80;100.00;98858.05;1694971;84;21206;-82
2023/04/12 03:39:46;;;;;;;;;;;;;;;10.81;100.00;98860.27;1698527;84;21191;-82
2023/04/12 03:42:48;;;;;;;11.10;6.25;;;;;;;10.71;100.00;98860.17;1696178;84;20199;-82
2023/04/12 03:45:54;;;;;;;13.28;5.40;;;;;;;10.70;100.00;98857.66;1695589;84;21227;-82
2023/04/12 03:49:00;;;;;;;18.17;5.53;;;;;;;10.64;100.00;98859.88;1695978;84;21183;-82
2023/04/12 03:52:07;;;;;;;16.77;5.80;;;;;;;10.72;100.00;98851.44;1694811;84;21223;-82
2023/04/12 03:55:16;;;;;;;20.68;6.28;;;;;;;10.81;100.00;98857.00;1696049;84;21172;-81
2023/04/12 03:58:24;;;;;;;14.93;5.80;;;;;;;10.81;100.00;98857.00;1696243;84;21242;-81
2023/04/12 04:01:32;;;;;;;17.27;6.12;;;;;;;10.79;100.00;98857.75;1696068;84;21167;-82
2023/04/12 04:04:36;;;;;;;12.65;6.03;;;;;;;10.72;100.00;98859.64;1696159;84;21710;-82
2023/04/12 04:07:38;;;;;;;10.38;5.45;;;;;;;10.75;100.00;98852.39;1694978;84;21302;-82
2023/04/12 04:10:38;;;;;;;10.93;5.70;;;;;;;10.75;100.00;98856.48;1696088;84;21203;-82
2023/04/12 04:13:46;;;;;;;12.75;5.55;;;;;;;10.72;100.00;98856.38;1694703;84;21183;-82
2023/04/12 04:16:54;;;;;;;16.00;6.00;;;;;;;10.79;100.00;98860.48;1695260;84;21199;-82
2023/04/12 04:20:00;;;;;;;10.98;6.28;;;;;;;10.79;100.00;98855.02;1701286;83;21224;-83
2023/04/12 04:23:09;;;;;;;19.57;6.70;;;;;;;10.65;100.00;98861.03;1723737;83;21767;-82
2023/04/12 04:26:16;;;;;;;22.67;7.62;;;;;;;10.63;100.00;98855.44;1723339;83;21219;-82
2023/04/12 04:29:24;;;;;;;24.82;7.03;;;;;;;10.64;100.00;98858.52;1723530;83;21196;-82
2023/04/12 04:32:28;;;;;;;14.30;5.78;;;;;;;10.66;100.00;98857.77;1723873;83;21136;-83
2023/04/12 04:35:35;;;;;;;14.73;5.75;;;;;;;10.67;100.00;98858.91;1694755;83;21188;-82
2023/04/12 04:38:49;;;;;;;15.40;6.40;;;;;;;10.63;100.00;98860.91;1722035;83;21711;-82
2023/04/12 04:41:59;;;;;;;15.48;6.17;;;;;;;10.63;100.00;98865.88;1721382;82;21239;-82
2023/04/12 04:45:12;;;;;;;16.70;7.28;;;;;;;10.75;100.00;98861.43;1720672;83;22481;-82
2023/04/12 04:48:15;;;;;;;22.87;7.90;;;;;;;10.82;100.00;98857.34;1720844;83;21220;-82
2023/04/12 04:51:20;;;;;;;17.80;6.55;;;;;;;10.82;100.00;98857.84;1692076;84;21244;-82
2023/04/12 04:54:28;;;;;;;24.20;8.88;;;;;;;10.93;100.00;98855.30;1692183;85;21691;-82
2023/04/12 04:57:34;;;;;;;18.95;8.00;;;;;;;11.02;100.00;98857.28;1690793;84;21203;-82
2023/04/12 05:00:39;;;;;;;25.23;10.30;;;;;;;10.93;100.00;98853.94;1722556;83;21220;-82
2023/04/12 05:03:45;;;;;;;28.75;11.15;;;;;;;11.12;100.00;98852.73;1722408;83;21734;-82
2023/04/12 05:06:52;;;;;;;23.57;10.18;;;;;;;11.09;100.00;98851.78;1722075;83;21219;-82
2023/04/12 05:09:58;;;;;;;15.95;8.98;;;;;;;11.08;100.00;98858.31;1722210;83;21751;-81
2023/04/12 05:12:58;;;;;;;27.25;7.45;;;;;;;11.10;100.00;98858.39;1695175;83;21243;-82
2023/04/12 05:16:04;;;;;;;25.92;6.83;;;;;;;11.14;100.00;98851.97;1722641;83;21196;-81
2023/04/12 05:19:13;;;;;;;21.82;13.65;;;;;;;11.18;100.00;98851.33;1722114;83;22249;-81
2023/04/12 05:22:20;;;;;;;26.42;14.18;;;;;;;11.13;100.00;98848.93;1714983;83;21842;-81
2023/04/12 05:25:19;;;;;;;23.38;10.85;;;;;;;11.10;100.00;98851.55;1715365;83;21200;-82
2023/04/12 05:28:28;;;;;;;19.80;9.58;;;;;;;11.10;100.00;98854.83;1715067;82;21771;-81
2023/04/12 05:31:34;;;;;;;28.40;12.20;;;;;;;11.07;100.00;98849.27;1715305;83;21200;-82
2023/04/12 05:34:41;;;;;;;20.37;7.72;;;;;;;11.03;100.00;98841.70;1706573;83;21200;-82
2023/04/12 05:37:47;;;;;;;21.57;14.28;;;;;;;11.18;100.00;98842.28;1692551;84;21200;-81
2023/04/12 05:40:53;;;;;;;26.62;7.65;;;;;;;11.29;100.00;98832.02;1693238;84;21283;-81
2023/04/12 05:43:58;;;;;;;21.33;8.98;;;;;;;11.25;100.00;98840.38;1692124;83;21199;-82
2023/04/12 05:46:59;;;;;;;18.25;6.47;;;;;;;11.20;100.00;98834.18;1692935;84;21251;-81
2023/04/12 05:49:52;;;;;;;49.35;23.10;;;;;;;11.25;100.00;98839.01;1693071;84;21200;-82
2023/04/12 05:52:41;;;;;;;29.60;13.40;;;;;;;11.32;100.00;98834.86;1691392;84;21219;-82
2023/04/12 05:55:48;;;;;;;19.90;8.00;;;;;;;11.46;100.00;98826.91;1690985;84;21383;-81
2023/04/12 05:58:55;;;;;;;29.27;9.33;;;;;;;11.36;100.00;98830.11;1691283;83;21255;-82
2023/04/12 06:02:03;;;;;;;21.02;11.53;;;;;;;11.40;100.00;98834.09;1692622;84;21212;-82
2023/04/12 06:05:10;;;;;;;27.98;14.40;;;;;;;11.33;100.00;98829.16;1705839;83;21192;-82
2023/04/12 06:08:16;;;;;;;28.12;15.08;;;;;;;11.34;100.00;98824.02;1670358;84;21253;-81
2023/04/12 06:11:23;;;;;;;27.35;11.22;;;;;;;11.32;100.00;98830.22;1692919;84;21254;-81
2023/04/12 06:14:30;;;;;;;29.85;11.78;;;;;;;11.38;100.00;98825.77;1658685;85;21204;-82
2023/04/12 06:17:37;;;;;;;59.48;36.83;;;;;;;11.37;100.00;98825.47;1712565;83;21183;-82
2023/04/12 06:20:46;;;;;;;31.57;20.88;;;;;;;11.44;100.00;98824.39;1699575;83;21191;-82
2023/04/12 06:23:53;;;;;;;27.07;13.93;;;;;;;11.47;100.00;98820.36;1696080;83;21782;-82
2023/04/12 06:26:59;;;;;;;32.23;14.98;;;;;;;11.45;100.00;98819.75;1685634;85;21783;-82
2023/04/12 06:30:05;;;;;;;34.40;22.50;;;;;;;11.40;100.00;98824.51;1657180;86;21252;-81
2023/04/12 06:33:14;;;;;;;31.80;15.20;;;;;;;11.45;100.00;98821.95;1659934;84;21216;-82
2023/04/12 06:36:22;;;;;;;26.20;12.15;;;;;;;11.52;100.00;98818.64;1634358;86;21279;-82
2023/04/12 06:39:28;;;;;;;22.45;9.55;;;;;;;11.65;100.00;98821.84;1683329;83;21807;-82
2023/04/12 06:42:35;;;;;;;20.32;10.82;;;;;;;11.72;100.00;98823.20;1721337;82;21216;-82
2023/04/12 06:45:43;;;;;;;73.80;46.37;;;;;;;11.73;100.00;98824.33;1688135;83;21196;-82
2023/04/12 06:48:43;;;;;;;35.48;17.62;;;;;;;11.81;100.00;98823.75;1677238;83;22157;-82
2023/04/12 06:51:37;;;;;;;20.88;9.85;;;;;;;11.92;100.00;98822.56;1668908;83;21181;-82
2023/04/12 06:55:02;;;;;;;17.25;7.90;;;;;;;11.80;100.00;98816.06;1679225;83;21220;-85
2023/04/12 06:58:30;;;;;;;27.87;14.87;;;;;;;11.78;100.00;98823.14;1661611;85;21224;-82
2023/04/12 07:01:42;;;;;;;37.45;23.25;;;;;;;11.96;100.00;98819.69;1689124;83;21240;-81
2023/04/12 07:04:59;;;;;;;26.45;9.15;;;;;;;11.96;100.00;98815.58;1682935;85;21771;-82
2023/04/12 07:08:07;;;;;;;37.42;22.55;;;;;;;11.94;100.00;98810.84;1682902;85;21210;-82
2023/04/12 07:11:13;;;;;;;38.42;22.22;;;;;;;12.02;100.00;98813.85;1670972;83;21809;-82
2023/04/12 07:14:21;;;;;;;24.18;10.65;;;;;;;12.13;100.00;98814.49;1677795;84;21193;-82
2023/04/12 07:17:28;;;;;;;16.05;11.20;;;;;;;12.15;100.00;98820.61;1676571;85;21173;-81
2023/04/12 07:20:35;;;;;;;20.30;8.93;;;;;;;12.15;100.00;98821.98;1684793;83;21181;-81
2023/04/12 07:23:41;;;;;;;20.55;9.28;;;;;;;12.21;100.00;98815.59;1704417;84;21247;-81
2023/04/12 07:26:57;;;;;;;25.43;9.33;;;;;;;12.27;100.00;98823.45;1688173;83;21211;-81
2023/04/12 07:29:58;;;;;;;44.85;23.38;;;;;;;12.46;100.00;98821.60;1687524;84;21283;-83
2023/04/12 07:33:06;;;;;;;31.15;18.92;;;;;;;12.16;100.00;98822.28;1694519;83;21794;-81
2023/04/12 07:36:16;;;;;;;25.37;12.58;;;;;;;12.23;100.00;98818.10;1696982;83;21240;-82
2023/04/12 07:39:23;;;;;;;22.87;10.43;;;;;;;12.26;100.00;98819.04;1691766;83;21216;-82
2023/04/12 07:42:30;;;;;;;29.87;14.85;;;;;;;12.30;100.00;98818.91;1717114;82;21209;-82
2023/04/12 07:45:36;;;;;;;24.47;13.10;;;;;;;12.30;100.00;98818.06;1699246;83;21260;-82
2023/04/12 07:48:42;;;;;;;17.57;9.18;;;;;;;12.32;100.00;98816.77;1713916;82;21230;-82
2023/04/12 07:51:49;;;;;;;19.35;9.33;;;;;;;12.28;100.00;98811.45;1677832;85;21309;-81
2023/04/12 07:54:56;;;;;;;30.48;17.98;;;;;;;12.34;100.00;98817.40;1675806;84;21219;-82
2023/04/12 07:58:02;;;;;;;17.37;9.00;;;;;;;12.17;100.00;98819.00;1694006;84;21265;-81
2023/04/12 08:01:10;;;;;;;20.75;14.13;;;;;;;12.25;100.00;98823.69;1694245;83;21212;-81
2023/04/12 08:04:17;;;;;;;20.35;15.55;;;;;;;12.28;100.00;98819.67;1706804;83;21269;-80
2023/04/12 08:07:25;;;;;;;21.50;13.38;;;;;;;12.20;100.00;98815.83;1724859;83;21231;-80
2023/04/12 08:10:31;;;;;;;19.00;8.15;;;;;;;12.12;100.00;98816.93;1687194;85;21256;-81
2023/04/12 08:13:37;;;;;;;22.93;8.70;;;;;;;12.18;100.00;98803.70;1691129;83;21856;-81
2023/04/12 08:16:44;;;;;;;33.40;17.50;;;;;;;12.10;100.00;98811.37;1694136;84;21205;-80
2023/04/12 08:19:50;;;;;;;18.95;11.80;;;;;;;12.14;100.00;98811.22;1704110;83;21202;-81
2023/04/12 08:22:57;;;;;;;13.93;6.55;;;;;;;12.16;100.00;98809.11;1709208;82;21438;-81
2023/04/12 08:26:05;;;;;;;20.27;10.85;;;;;;;12.14;100.00;98803.86;1734830;82;21247;-80
2023/04/12 08:29:11;;;;;;;18.52;8.15;;;;;;;12.09;100.00;98809.17;1710566;82;21228;-82
2023/04/12 08:32:19;;;;;;;15.38;8.40;;;;;;;12.18;100.00;98796.84;1678761;83;21257;-82
2023/04/12 08:35:24;;;;;;;15.23;7.30;;;;;;;12.10;100.00;98799.05;1684473;83;21206;-81
2023/04/12 08:38:30;;;;;;;54.08;31.17;;;;;;;12.17;100.00;98798.45;1678529;83;21268;-82
2023/04/12 08:41:38;;;;;;;18.12;11.08;;;;;;;12.22;100.00;98804.09;1641819;86;21193;-81
2023/04/12 08:44:45;;;;;;;16.00;9.38;;;;;;;12.14;100.00;98801.12;1663505;85;21208;-81
2023/04/12 08:47:51;;;;;;;16.17;11.85;;;;;;;12.23;100.00;98796.17;1678971;85;21221;-82
2023/04/12 08:51:00;;;;;;;24.27;15.13;;;;;;;12.24;100.00;98800.62;1676955;85;21216;-82
2023/04/12 08:54:18;;;;;;;14.25;9.45;;;;;;;12.16;100.00;98791.30;1654490;85;21280;-82
2023/04/12 08:57:22;;;;;;;12.40;8.05;;;;;;;12.17;100.00;98797.08;1705255;83;21880;-82
2023/04/12 09:00:30;;;;;;;10.45;6.40;;;;;;;12.24;100.00;98789.66;1691736;83;21245;-82
2023/04/12 09:03:36;;;;;;;38.13;24.75;;;;;;;12.23;100.00;98783.84;1675165;84;21236;-82
2023/04/12 09:06:43;;;;;;;16.50;9.08;;;;;;;12.25;100.00;98788.58;1682485;85;21747;-81
2023/04/12 09:09:53;;;;;;;16.02;10.78;;;;;;;12.24;100.00;98790.48;1682077;85;21259;-82
2023/04/12 09:12:59;;;;;;;29.77;18.70;;;;;;;12.16;100.00;98789.92;1686832;85;21240;-82
2023/04/12 09:16:05;;;;;;;27.60;14.28;;;;;;;12.18;100.00;98787.25;1671217;85;21197;-82
2023/04/12 09:19:13;;;;;;;24.37;12.90;;;;;;;12.13;100.00;98785.71;1691667;83;21200;-82
2023/04/12 09:22:19;;;;;;;12.85;7.80;;;;;;;12.14;100.00;98780.56;1676489;85;21212;-81
2023/04/12 09:25:24;;;;;;;18.62;8.75;;;;;;;12.10;100.00;98775.75;1685240;85;21236;-82
2023/04/12 09:28:33;;;;;;;40.63;28.38;;;;;;;12.12;100.00;98777.72;1669584;85;21255;-82
2023/04/12 09:31:39;;;;;;;18.80;14.28;;;;;;;12.27;100.00;98775.48;1663798;85;21225;-81
2023/04/12 09:34:46;;;;;;;17.37;12.68;;;;;;;12.31;100.00;98782.73;1666268;85;21232;-83
2023/04/12 09:37:51;;;;;;;26.80;16.55;;;;;;;12.21;100.00;98784.61;1661015;85;21202;-81
2023/04/12 09:40:51;;;;;;;15.70;9.38;;;;;;;12.16;100.00;98789.92;1669036;84;21898;-82
2023/04/12 09:43:56;;;;;;;20.68;10.53;;;;;;;12.14;100.00;98784.67;1682078;84;21198;-82
2023/04/12 09:47:03;;;;;;;13.25;10.30;;;;;;;12.18;100.00;98782.30;1658672;86;21838;-82
2023/04/12 09:50:09;;;;;;;33.30;19.42;;;;;;;12.12;100.00;98780.47;1671363;85;21181;-82
2023/04/12 09:53:21;;;;;;;20.25;14.70;;;;;;;12.13;100.00;98783.50;1685723;85;21189;-82
2023/04/12 09:56:28;;;;;;;18.37;13.13;;;;;;;12.08;100.00;98772.38;1672158;85;21228;-82
2023/04/12 09:59:33;;;;;;;17.82;13.98;;;;;;;12.09;100.00;98769.44;1639237;86;21245;-82
2023/04/12 10:02:40;;;;;;;13.55;8.38;;;;;;;12.10;100.00;98772.47;1712415;83;21243;-83
2023/04/12 10:05:48;;;;;;;17.40;10.18;;;;;;;12.17;100.00;98772.41;1684467;85;21196;-83
2023/04/12 10:08:56;;;;;;;14.07;9.15;;;;;;;12.25;100.00;98765.28;1674362;85;21573;-83
2023/04/12 10:12:03;;;;;;;82.57;54.03;;;;;;;12.30;100.00;98757.22;1684275;83;22119;-84
2023/04/12 10:15:14;;;;;;;24.18;17.62;;;;;;;12.20;100.00;98756.89;1676728;84;21237;-82
2023/04/12 10:18:26;;;;;;;15.60;11.50;;;;;;;12.22;100.00;98760.23;1682824;84;22343;-82
2023/04/12 10:21:31;;;;;;;18.07;11.70;;;;;;;12.21;100.00;98759.94;1684770;85;21212;-83
2023/04/12 10:24:38;;;;;;;13.50;10.55;;;;;;;12.21;100.00;98747.06;1682789;85;21259;-82
2023/04/12 10:27:43;;;;;;;12.18;10.40;;;;;;;12.29;100.00;98744.58;1679688;85;21224;-82
2023/04/12 10:30:51;;;;;;;12.60;6.85;;;;;;;12.27;100.00;98738.47;1677108;84;21181;-82
2023/04/12 10:33:58;;;;;;;7.05;4.90;;;;;;;12.37;100.00;98739.32;1674816;85;21177;-82
2023/04/12 10:37:08;;;;;;;12.33;7.58;;;;;;;12.37;100.00;98733.30;1676889;85;21202;-82
2023/04/12 10:40:14;;;;;;;;;;;;;;;12.37;100.00;98739.32;1687857;83;21239;-83
2023/04/12 10:43:32;;;;;;;8.78;6.10;;;;;;;12.44;100.00;98742.85;1688096;83;20266;-82
2023/04/12 10:46:54;;;;;;;10.85;6.40;;;;;;;12.31;100.00;98741.06;1689120;83;21745;-82
2023/04/12 10:50:34;;;;;;;10.50;9.43;;;;;;;12.42;100.00;98748.57;1693023;83;21212;-83
2023/04/12 10:53:40;;;;;;;17.40;15.63;;;;;;;12.45;100.00;98738.50;1699509;83;21803;-83
2023/04/12 10:56:51;;;;;;;19.77;15.35;;;;;;;12.35;100.00;98738.19;1687724;84;21188;-82
2023/04/12 11:00:01;;;;;;;10.18;7.10;;;;;;;12.29;100.00;98741.84;1682946;85;21223;-82
2023/04/12 11:03:14;;;;;;;11.28;7.40;;;;;;;12.26;100.00;98745.02;1685228;84;21828;-82
2023/04/12 11:06:20;;;;;;;11.97;9.68;;;;;;;12.31;100.00;98732.84;1689718;83;21198;-82
2023/04/12 11:09:47;;;;;;;20.88;12.18;;;;;;;12.22;100.00;98745.16;1683518;85;21314;-83
2023/04/12 11:13:00;;;;;;;19.27;11.65;;;;;;;12.21;100.00;98748.97;1662845;86;21223;-82
2023/04/12 11:16:13;;;;;;;18.82;8.33;;;;;;;12.07;100.00;98729.59;1684149;85;21207;-82
2023/04/12 11:19:20;;;;;;;10.08;6.80;;;;;;;12.15;100.00;98721.09;1680960;85;21204;-82
2023/04/12 11:22:28;;;;;;;11.65;8.35;;;;;;;12.15;100.00;98732.06;1689197;85;21273;-82
2023/04/12 11:25:33;;;;;;;11.25;8.38;;;;;;;12.35;100.00;98735.98;1687860;85;21185;-82
2023/04/12 11:28:38;;;;;;;17.23;8.00;;;;;;;12.34;100.00;98739.80;1679592;85;21854;-82
2023/04/12 11:31:46;;;;;;;24.52;21.15;;;;;;;12.24;100.00;98749.91;1679746;85;21216;-82
2023/04/12 11:34:53;;;;;;;18.42;10.68;;;;;;;12.23;100.00;98757.80;1681405;83;21204;-82
2023/04/12 11:38:03;;;;;;;22.40;12.85;;;;;;;12.18;100.00;98741.19;1648801;86;21252;-83
2023/04/12 11:41:08;;;;;;;16.20;10.53;;;;;;;12.28;100.00;98742.91;1711111;82;21143;-82
2023/04/12 11:44:17;;;;;;;24.43;17.82;;;;;;;12.22;100.00;98741.88;1686397;83;21180;-83
2023/04/12 11:47:24;;;;;;;15.88;11.78;;;;;;;12.12;100.00;98737.98;1680692;83;21199;-83
2023/04/12 11:50:38;;;;;;;21.50;11.45;;;;;;;12.09;100.00;98745.27;1687221;83;21246;-82
2023/04/12 11:53:45;;;;;;;17.75;11.75;;;;;;;11.94;100.00;98747.81;1684019;83;22374;-82
2023/04/12 11:56:50;;;;;;;37.05;24.43;;;;;;;11.94;100.00;98742.33;1693447;84;21213;-82
2023/04/12 11:59:58;;;;;;;19.87;12.45;;;;;;;11.96;100.00;98744.88;1705978;83;21204;-82
2023/04/12 12:02:58;;;;;;;26.70;13.75;;;;;;;11.92;100.00;98745.84;1712629;83;21180;-82
2023/04/12 12:05:54;;;;;;;33.48;15.53;;;;;;;11.86;100.00;98738.52;1706604;82;21203;-83
2023/04/12 12:08:40;;;;;;;20.27;13.48;;;;;;;11.93;100.00;98736.55;1720286;83;21500;-82
2023/04/12 12:11:46;;;;;;;22.82;12.65;;;;;;;12.01;100.00;98735.45;1648199;86;21517;-82
2023/04/12 12:14:52;;;;;;;23.95;13.60;;;;;;;11.95;100.00;98728.97;1653556;86;21803;-82
2023/04/12 12:18:01;;;;;;;31.50;13.10;;;;;;;12.07;100.00;98729.06;1684331;84;21763;-82
2023/04/12 12:21:07;;;;;;;33.23;15.00;;;;;;;12.09;100.00;98720.61;1686478;83;21783;-82
2023/04/12 12:24:13;;;;;;;34.50;17.87;;;;;;;12.02;100.00;98724.79;1686329;84;21260;-82
2023/04/12 12:27:19;;;;;;;46.37;28.80;;;;;;;12.02;100.00;98726.16;1665572;85;21204;-82
2023/04/12 12:30:25;;;;;;;42.70;26.23;;;;;;;12.04;100.00;98724.02;1687216;83;21224;-82
2023/04/12 12:33:31;;;;;;;45.80;26.20;;;;;;;12.12;100.00;98724.28;1681986;85;21727;-82
2023/04/12 12:36:37;;;;;;;38.10;27.30;;;;;;;12.10;100.00;98725.05;1681388;84;21284;-82
2023/04/12 12:39:44;;;;;;;39.90;27.37;;;;;;;12.02;100.00;98722.88;1683471;85;21200;-82
2023/04/12 12:42:53;;;;;;;48.00;28.30;;;;;;;12.05;100.00;98716.66;1689812;85;21767;-82
2023/04/12 12:45:59;;;;;;;47.67;29.45;;;;;;;12.15;100.00;98712.87;1693335;83;21190;-82
2023/04/12 12:49:05;;;;;;;45.65;29.80;;;;;;;12.22;100.00;98719.12;1706935;83;21743;-82
2023/04/12 12:52:09;;;;;;;42.60;30.08;;;;;;;12.26;100.00;98706.64;1702967;82;21222;-83
2023/04/12 12:55:16;;;;;;;50.10;29.07;;;;;;;12.30;100.00;98712.52;1705328;83;21215;-82
2023/04/12 12:58:16;;;;;;;44.30;29.25;;;;;;;12.24;100.00;98713.73;1713313;83;21204;-82
2023/04/12 13:01:13;;;;;;;46.80;29.98;;;;;;;12.19;100.00;98711.37;1717207;83;21212;-82
2023/04/12 13:03:59;;;;;;;43.55;29.87;;;;;;;12.14;100.00;98705.70;1715865;83;21811;-81
2023/04/12 13:06:52;;;;;;;43.17;28.35;;;;;;;12.23;100.00;98701.09;1717240;82;21232;-82
2023/04/12 13:09:59;;;;;;;39.20;26.87;;;;;;;12.20;100.00;98700.70;1716996;83;21264;-81
2023/04/12 13:13:06;;;;;;;41.15;27.48;;;;;;;12.36;100.00;98698.73;1716645;83;21216;-82
2023/04/12 13:16:13;;;;;;;45.67;26.25;;;;;;;12.38;100.00;98693.04;1717043;83;21211;-81
2023/04/12 13:19:21;;;;;;;41.35;26.17;;;;;;;12.43;100.00;98687.17;1717702;83;21771;-81
2023/04/12 13:22:28;;;;;;;43.08;25.88;;;;;;;12.45;100.00;98693.25;1717009;82;21228;-81
2023/04/12 13:25:33;;;;;;;50.60;26.25;;;;;;;12.48;100.00;98704.31;1716070;83;21149;-81
2023/04/12 13:28:39;;;;;;;36.03;24.40;;;;;;;12.45;100.00;98711.61;1716035;83;21220;-81
2023/04/12 13:31:45;;;;;;;41.83;25.92;;;;;;;12.45;100.00;98706.97;1714773;82;21219;-82
2023/04/12 13:34:53;;;;;;;39.60;26.30;;;;;;;12.41;100.00;98698.89;1716955;83;21794;-81
2023/04/12 13:37:58;;;;;;;39.55;25.57;;;;;;;12.41;100.00;98696.67;1688853;85;21224;-81
2023/04/12 13:41:04;;;;;;;37.08;24.70;;;;;;;12.37;100.00;98688.06;1659801;86;21767;-82
2023/04/12 13:44:10;;;;;;;37.95;24.82;;;;;;;12.42;100.00;98684.64;1667509;85;21198;-81
2023/04/12 13:47:17;;;;;;;43.30;26.57;;;;;;;12.49;100.00;98693.64;1654523;86;21218;-82
2023/04/12 13:50:24;;;;;;;40.92;26.15;;;;;;;12.48;100.00;98692.81;1705364;84;21237;-81
2023/04/12 13:53:31;;;;;;;36.38;25.65;;;;;;;12.46;100.00;98689.98;1704053;84;21216;-82
2023/04/12 13:56:37;;;;;;;46.98;25.90;;;;;;;12.63;100.00;98692.97;1687652;85;21204;-82
2023/04/12 13:59:42;;;;;;;45.95;26.15;;;;;;;12.60;100.00;98686.55;1710468;83;21224;-82
2023/04/12 14:02:50;;;;;;;38.17;25.68;;;;;;;12.58;100.00;98702.41;1715990;83;21248;-82
2023/04/12 14:05:55;;;;;;;41.83;25.00;;;;;;;12.45;100.00;98701.48;1714920;83;21439;-82
2023/04/12 14:09:01;;;;;;;42.78;25.85;;;;;;;12.58;100.00;98706.53;1714726;83;21172;-81
2023/04/12 14:12:06;;;;;;;44.63;26.05;;;;;;;12.56;100.00;98703.16;1715029;83;21243;-82
2023/04/12 14:15:12;;;;;;;42.00;24.18;;;;;;;12.53;100.00;98706.67;1703763;84;21248;-82